createdAt,value
2022-10-14T00:00:14.391Z,7.97
2022-10-14T00:02:41.567Z,12.05
2022-10-14T00:05:09.965Z,10.77
2022-10-14T00:07:39.992Z,9.82
2022-10-14T00:10:07.149Z,10.00
2022-10-14T00:12:34.635Z,8.82
2022-10-14T00:15:01.723Z,8.65
2022-10-14T00:17:28.548Z,8.35
2022-10-14T00:19:55.269Z,7.65
2022-10-14T00:22:22.044Z,7.28
2022-10-14T00:24:48.782Z,7.97
2022-10-14T00:27:15.567Z,7.43
2022-10-14T00:29:42.291Z,7.53
2022-10-14T00:32:09.170Z,7.25
2022-10-14T00:34:35.955Z,6.88
2022-10-14T00:37:04.213Z,6.80
2022-10-14T00:39:32.176Z,6.72
2022-10-14T00:41:58.959Z,6.35
2022-10-14T00:44:25.641Z,6.88
2022-10-14T00:46:52.601Z,7.25
2022-10-14T00:49:27.968Z,6.57
2022-10-14T00:52:02.000Z,6.63
2022-10-14T00:54:42.311Z,7.22
2022-10-14T00:57:10.288Z,6.63
2022-10-14T00:59:38.305Z,6.95
2022-10-14T01:02:05.385Z,8.02
2022-10-14T01:04:33.240Z,7.07
2022-10-14T01:07:27.518Z,7.47
2022-10-14T01:10:09.634Z,7.05
2022-10-14T01:13:11.804Z,7.47
2022-10-14T01:15:48.823Z,7.15
2022-10-14T01:18:20.160Z,7.13
2022-10-14T01:20:57.781Z,6.45
2022-10-14T01:23:39.862Z,6.13
2022-10-14T01:26:44.775Z,7.38
2022-10-14T01:29:53.414Z,7.75
2022-10-14T01:32:26.353Z,6.93
2022-10-14T01:35:01.537Z,6.10
2022-10-14T01:37:30.577Z,6.50
2022-10-14T01:40:02.761Z,6.93
2022-10-14T01:42:34.408Z,6.93
2022-10-14T01:45:19.383Z,6.63
2022-10-14T01:47:50.363Z,7.60
2022-10-14T01:50:20.562Z,5.82
2022-10-14T01:52:53.354Z,6.80
2022-10-14T01:55:25.190Z,7.57
2022-10-14T01:57:56.160Z,7.13
2022-10-14T02:00:24.283Z,7.45
2022-10-14T02:02:51.067Z,7.70
2022-10-14T02:05:28.629Z,7.78
2022-10-14T02:08:14.445Z,7.95
2022-10-14T02:11:11.284Z,7.68
2022-10-14T02:13:47.504Z,7.68
2022-10-14T02:16:34.260Z,7.50
2022-10-14T02:19:28.486Z,7.30
2022-10-14T02:22:01.063Z,7.18
2022-10-14T02:24:39.658Z,6.38
2022-10-14T02:27:11.532Z,6.82
2022-10-14T02:29:42.529Z,5.65
2022-10-14T02:32:14.105Z,7.43
2022-10-14T02:34:42.433Z,7.50
2022-10-14T02:37:12.505Z,6.88
2022-10-14T02:39:44.254Z,7.28
2022-10-14T02:42:11.173Z,7.50
2022-10-14T02:44:37.975Z,7.07
2022-10-14T02:47:04.859Z,7.15
2022-10-14T02:49:31.757Z,7.22
2022-10-14T02:51:58.606Z,7.30
2022-10-14T02:54:25.353Z,7.55
2022-10-14T02:56:52.077Z,7.45
2022-10-14T02:59:18.842Z,7.57
2022-10-14T03:01:46.329Z,7.55
2022-10-14T03:04:13.489Z,8.30
2022-10-14T03:06:40.262Z,7.80
2022-10-14T03:09:08.171Z,7.18
2022-10-14T03:11:38.344Z,7.75
2022-10-14T03:14:08.832Z,6.97
2022-10-14T03:16:37.427Z,7.03
2022-10-14T03:19:04.315Z,7.78
2022-10-14T03:21:46.686Z,6.07
2022-10-14T03:24:18.633Z,6.15
2022-10-14T03:26:48.856Z,6.72
2022-10-14T03:29:19.437Z,6.72
2022-10-14T03:31:55.392Z,6.82
2022-10-14T03:34:42.403Z,7.13
2022-10-14T03:37:14.822Z,7.68
2022-10-14T03:39:48.257Z,7.25
2022-10-14T03:42:16.867Z,7.85
2022-10-14T03:44:47.193Z,7.35
2022-10-14T03:47:23.634Z,7.95
2022-10-14T03:49:50.967Z,7.38
2022-10-14T03:52:28.960Z,7.55
2022-10-14T03:55:02.539Z,6.85
2022-10-14T03:57:29.906Z,7.75
2022-10-14T03:59:59.136Z,7.50
2022-10-14T04:02:41.256Z,6.75
2022-10-14T04:05:20.222Z,7.07
2022-10-14T04:07:48.656Z,8.18
2022-10-14T04:10:15.774Z,9.30
2022-10-14T04:12:48.476Z,8.70
2022-10-14T04:15:23.125Z,8.23
2022-10-14T04:18:06.191Z,8.35
2022-10-14T04:20:33.533Z,6.68
2022-10-14T04:23:00.928Z,8.35
2022-10-14T04:25:28.749Z,7.03
2022-10-14T04:28:05.142Z,7.18
2022-10-14T04:30:44.119Z,7.88
2022-10-14T04:35:43.549Z,7.60
2022-10-14T04:38:19.752Z,7.80
2022-10-14T04:40:53.739Z,8.70
2022-10-14T04:43:20.962Z,8.00
2022-10-14T04:45:48.510Z,9.10
2022-10-14T04:48:22.905Z,9.45
2022-10-14T04:50:54.069Z,8.93
2022-10-14T04:53:33.505Z,8.55
2022-10-14T04:56:26.721Z,8.82
2022-10-14T04:59:00.602Z,10.02
2022-10-14T05:01:46.149Z,7.75
2022-10-14T05:04:13.621Z,9.90
2022-10-14T05:06:42.342Z,8.35
2022-10-14T05:09:12.382Z,8.15
2022-10-14T05:11:39.453Z,7.93
2022-10-14T05:14:06.514Z,8.35
2022-10-14T05:16:35.095Z,8.57
2022-10-14T05:19:03.207Z,10.10
2022-10-14T05:21:32.212Z,8.98
2022-10-14T05:24:09.060Z,8.90
2022-10-14T05:26:38.573Z,10.05
2022-10-14T05:29:10.857Z,10.77
2022-10-14T05:31:39.003Z,10.77
2022-10-14T05:34:35.855Z,10.40
2022-10-14T05:37:04.717Z,9.48
2022-10-14T05:39:38.926Z,11.77
2022-10-14T05:42:06.036Z,13.13
2022-10-14T05:44:34.776Z,11.27
2022-10-14T05:47:02.830Z,9.57
2022-10-14T05:49:29.604Z,10.73
2022-10-14T05:51:58.173Z,10.48
2022-10-14T05:54:24.962Z,10.13
2022-10-14T05:56:54.367Z,9.75
2022-10-14T05:59:22.450Z,9.82
2022-10-14T06:01:49.240Z,10.27
2022-10-14T06:04:21.243Z,9.85
2022-10-14T06:06:48.439Z,9.32
2022-10-14T06:09:16.102Z,8.55
2022-10-14T06:11:42.898Z,8.80
2022-10-14T06:14:10.040Z,10.50
2022-10-14T06:16:37.014Z,9.07
2022-10-14T06:19:06.164Z,8.50
2022-10-14T06:21:33.230Z,8.82
2022-10-14T06:24:00.133Z,8.70
2022-10-14T06:26:27.023Z,8.73
2022-10-14T06:28:53.954Z,8.30
2022-10-14T06:31:21.132Z,8.85
2022-10-14T06:33:47.886Z,8.82
2022-10-14T06:36:14.661Z,8.85
2022-10-14T06:38:41.421Z,9.02
2022-10-14T06:41:08.265Z,6.97
2022-10-14T06:43:35.493Z,8.15
2022-10-14T06:46:03.397Z,7.55
2022-10-14T06:48:30.292Z,7.18
2022-10-14T06:51:01.540Z,7.00
2022-10-14T06:53:29.475Z,6.95
2022-10-14T06:56:05.552Z,7.20
2022-10-14T06:58:33.735Z,7.25
2022-10-14T07:01:05.082Z,7.07
2022-10-14T07:03:36.448Z,6.75
2022-10-14T07:06:05.301Z,6.80
2022-10-14T07:08:32.321Z,6.20
2022-10-14T07:10:59.050Z,5.38
2022-10-14T07:13:26.245Z,4.93
2022-10-14T07:15:53.047Z,4.53
2022-10-14T07:18:20.006Z,4.15
2022-10-14T07:20:47.032Z,4.00
2022-10-14T07:23:14.042Z,3.38
2022-10-14T07:25:41.192Z,3.72
2022-10-14T07:28:08.031Z,3.40
2022-10-14T07:30:34.892Z,4.13
2022-10-14T07:33:02.066Z,2.90
2022-10-14T07:35:29.259Z,3.53
2022-10-14T07:37:57.973Z,2.80
2022-10-14T07:40:25.357Z,2.88
2022-10-14T07:42:52.204Z,2.85
2022-10-14T07:45:21.049Z,2.83
2022-10-14T07:47:50.362Z,3.20
2022-10-14T07:50:17.506Z,2.85
2022-10-14T07:52:44.442Z,3.03
2022-10-14T07:55:11.328Z,3.05
2022-10-14T07:57:38.051Z,2.90
2022-10-14T08:00:06.359Z,3.00
2022-10-14T08:02:41.775Z,3.10
2022-10-14T08:05:32.947Z,2.97
2022-10-14T08:07:55.481Z,2.67
2022-10-14T08:10:22.382Z,3.00
2022-10-14T08:12:49.269Z,3.28
2022-10-14T08:15:16.192Z,2.65
2022-10-14T08:17:43.021Z,3.08
2022-10-14T08:20:09.990Z,3.05
2022-10-14T08:22:36.835Z,2.75
2022-10-14T08:25:03.771Z,2.40
2022-10-14T08:27:30.589Z,2.88
2022-10-14T08:29:57.316Z,2.88
2022-10-14T08:32:24.660Z,2.80
2022-10-14T08:34:51.653Z,3.10
2022-10-14T08:37:18.634Z,3.28
2022-10-14T08:39:45.385Z,2.75
2022-10-14T08:42:24.874Z,3.15
2022-10-14T08:45:03.287Z,3.13
2022-10-14T08:47:40.271Z,3.35
2022-10-14T08:50:14.783Z,2.90
2022-10-14T08:52:50.067Z,3.85
2022-10-14T08:55:46.665Z,3.35
2022-10-14T08:58:16.800Z,3.25
2022-10-14T09:04:35.904Z,3.30
2022-10-14T09:07:03.334Z,3.13
2022-10-14T09:09:53.300Z,3.70
2022-10-14T09:12:29.644Z,4.10
2022-10-14T09:15:04.374Z,4.05
2022-10-14T09:17:45.111Z,3.58
2022-10-14T09:20:22.485Z,3.35
2022-10-14T09:23:04.395Z,3.40
2022-10-14T09:25:37.124Z,3.15
2022-10-14T09:28:04.181Z,3.10
2022-10-14T09:30:36.549Z,2.72
2022-10-14T09:33:05.243Z,2.80
2022-10-14T09:35:38.766Z,3.30
2022-10-14T09:38:06.055Z,2.90
2022-10-14T09:40:39.513Z,2.63
2022-10-14T09:43:09.410Z,2.92
2022-10-14T09:45:48.317Z,3.30
2022-10-14T09:48:19.024Z,2.58
2022-10-14T09:50:55.714Z,2.53
2022-10-14T09:53:27.638Z,3.03
2022-10-14T09:58:30.927Z,2.42
2022-10-14T10:01:00.060Z,2.42
2022-10-14T10:03:35.733Z,2.70
2022-10-14T10:06:07.477Z,2.97
2022-10-14T10:08:37.904Z,2.35
2022-10-14T10:11:11.351Z,2.83
2022-10-14T10:13:44.908Z,2.60
2022-10-14T10:16:20.052Z,2.60
2022-10-14T10:18:47.019Z,2.78
2022-10-14T10:21:28.023Z,2.90
2022-10-14T10:23:58.991Z,2.58
2022-10-14T10:26:33.262Z,1.90
2022-10-14T10:29:05.072Z,2.10
2022-10-14T10:31:36.495Z,2.30
2022-10-14T10:34:13.304Z,2.25
2022-10-14T10:36:48.273Z,2.53
2022-10-14T10:39:27.023Z,2.30
2022-10-14T10:42:04.181Z,2.13
2022-10-14T10:44:58.989Z,2.67
2022-10-14T10:47:50.888Z,2.03
2022-10-14T10:50:30.055Z,2.53
2022-10-14T10:53:13.856Z,2.50
2022-10-14T10:58:19.063Z,2.20
2022-10-14T11:00:54.518Z,2.00
2022-10-14T11:03:55.141Z,2.28
2022-10-14T11:06:49.975Z,2.00
2022-10-14T11:09:55.555Z,1.80
2022-10-14T11:12:36.609Z,2.10
2022-10-14T11:15:20.498Z,1.77
2022-10-14T11:18:01.273Z,2.10
2022-10-14T11:20:44.084Z,1.92
2022-10-14T11:23:42.692Z,2.10
2022-10-14T11:26:52.360Z,2.08
2022-10-14T11:29:47.570Z,2.10
2022-10-14T11:32:14.396Z,2.13
2022-10-14T11:35:09.513Z,2.30
2022-10-14T11:37:54.707Z,2.35
2022-10-14T11:40:50.777Z,2.25
2022-10-14T11:43:36.634Z,2.10
2022-10-14T11:46:12.594Z,2.00
2022-10-14T11:48:47.528Z,2.28
2022-10-14T11:51:35.900Z,1.90
2022-10-14T11:54:09.162Z,1.90
2022-10-14T11:56:41.794Z,1.88
2022-10-14T12:01:50.172Z,1.40
2022-10-14T12:04:27.907Z,2.30
2022-10-14T12:07:13.460Z,6.70
2022-10-14T12:09:59.889Z,2.90
2022-10-14T12:12:29.440Z,2.20
2022-10-14T12:15:00.488Z,2.45
2022-10-14T12:17:51.644Z,2.92
2022-10-14T12:20:34.408Z,5.00
2022-10-14T12:23:04.662Z,2.45
2022-10-14T12:25:41.534Z,2.00
2022-10-14T12:28:12.392Z,2.63
2022-10-14T12:30:41.608Z,3.72
2022-10-14T12:33:13.384Z,3.03
2022-10-14T12:36:02.120Z,2.67
2022-10-14T12:38:30.597Z,3.80
2022-10-14T12:41:40.409Z,3.67
2022-10-14T12:44:14.881Z,2.80
2022-10-14T12:46:45.405Z,2.70
2022-10-14T12:49:46.759Z,2.97
2022-10-14T12:52:21.400Z,2.65
2022-10-14T12:54:50.127Z,2.78
2022-10-14T12:57:31.099Z,5.22
2022-10-14T13:00:01.461Z,4.35
2022-10-14T13:02:37.525Z,6.55
2022-10-14T13:05:10.451Z,3.17
2022-10-14T13:07:46.600Z,2.22
2022-10-14T13:10:46.841Z,1.80
2022-10-14T13:13:42.538Z,2.13
2022-10-14T13:16:16.068Z,4.10
2022-10-14T13:18:42.811Z,2.65
2022-10-14T13:21:21.115Z,4.53
2022-10-14T13:23:51.461Z,2.42
2022-10-14T13:26:31.817Z,1.70
2022-10-14T13:29:13.748Z,1.95
2022-10-14T13:31:49.683Z,1.52
2022-10-14T13:34:27.754Z,1.23
2022-10-14T13:37:03.437Z,1.38
2022-10-14T13:39:33.669Z,1.83
2022-10-14T13:42:01.795Z,1.73
2022-10-14T13:44:28.934Z,1.30
2022-10-14T13:46:56.457Z,1.20
2022-10-14T13:49:38.125Z,1.23
2022-10-14T13:52:18.335Z,1.60
2022-10-14T13:54:45.926Z,1.40
2022-10-14T14:02:55.171Z,2.05
2022-10-14T14:05:26.283Z,1.83
2022-10-14T14:10:57.511Z,1.80
2022-10-14T14:13:32.368Z,2.03
2022-10-14T14:15:59.217Z,2.60
2022-10-14T14:18:33.944Z,2.45
2022-10-14T14:21:13.384Z,1.70
2022-10-14T14:24:16.782Z,1.77
2022-10-14T14:26:53.713Z,2.17
2022-10-14T14:29:27.859Z,1.75
2022-10-14T14:32:12.322Z,2.38
2022-10-14T14:34:42.902Z,2.45
2022-10-14T14:40:15.017Z,2.15
2022-10-14T14:42:43.805Z,2.40
2022-10-14T14:45:17.975Z,4.53
2022-10-14T14:47:53.343Z,2.60
2022-10-14T14:50:30.414Z,2.78
2022-10-14T14:53:03.355Z,3.05
2022-10-14T14:55:43.493Z,2.17
2022-10-14T14:58:28.593Z,1.83
2022-10-14T15:00:56.036Z,2.17
2022-10-14T15:03:30.773Z,2.70
2022-10-14T15:06:00.908Z,2.25
2022-10-14T15:08:32.171Z,2.50
2022-10-14T15:11:00.368Z,2.03
2022-10-14T15:13:39.637Z,1.80
2022-10-14T15:16:07.700Z,2.53
2022-10-14T15:18:37.593Z,2.20
2022-10-14T15:21:21.558Z,2.45
2022-10-14T15:23:52.895Z,2.28
2022-10-14T15:26:21.614Z,2.40
2022-10-14T15:29:22.711Z,3.00
2022-10-14T15:32:05.180Z,3.65
2022-10-14T15:36:59.477Z,2.70
2022-10-14T15:39:26.337Z,3.17
2022-10-14T15:41:53.116Z,4.97
2022-10-14T15:44:19.881Z,4.07
2022-10-14T15:47:05.693Z,5.10
2022-10-14T15:49:42.563Z,9.95
2022-10-14T15:52:15.541Z,9.25
2022-10-14T15:54:43.235Z,7.18
2022-10-14T15:57:14.024Z,5.75
2022-10-14T15:59:45.629Z,7.88
2022-10-14T16:02:33.475Z,9.23
2022-10-14T16:05:19.442Z,7.90
2022-10-14T16:07:48.419Z,7.32
2022-10-14T16:10:18.385Z,6.20
2022-10-14T16:12:45.854Z,6.45
2022-10-14T16:15:30.455Z,4.90
2022-10-14T16:17:57.430Z,4.22
2022-10-14T16:20:24.534Z,4.15
2022-10-14T16:22:51.318Z,4.75
2022-10-14T16:25:32.914Z,4.68
2022-10-14T16:28:00.598Z,4.85
2022-10-14T16:30:28.157Z,4.22
2022-10-14T16:32:55.519Z,4.40
2022-10-14T16:35:22.435Z,4.30
2022-10-14T16:37:49.183Z,4.82
2022-10-14T16:40:16.216Z,4.65
2022-10-14T16:42:42.936Z,4.75
2022-10-14T16:45:10.307Z,4.78
2022-10-14T16:47:38.144Z,4.85
2022-10-14T16:50:06.715Z,5.75
2022-10-14T16:52:54.657Z,6.93
2022-10-14T16:55:22.639Z,7.68
2022-10-14T16:57:49.685Z,9.45
2022-10-14T17:02:45.488Z,9.10
2022-10-14T17:05:13.153Z,7.30
2022-10-14T17:07:39.941Z,5.75
2022-10-14T17:10:07.141Z,5.30
2022-10-14T17:12:33.971Z,4.38
2022-10-14T17:15:00.722Z,4.75
2022-10-14T17:17:27.476Z,4.68
2022-10-14T17:19:54.412Z,4.88
2022-10-14T17:22:21.591Z,4.60
2022-10-14T17:24:49.837Z,5.35
2022-10-14T17:27:19.499Z,4.93
2022-10-14T17:29:46.885Z,5.30
2022-10-14T17:32:13.645Z,5.20
2022-10-14T17:34:40.403Z,4.82
2022-10-14T17:39:35.029Z,4.90
2022-10-14T17:42:01.897Z,4.93
2022-10-14T17:44:28.964Z,4.85
2022-10-14T17:46:56.930Z,4.55
2022-10-14T17:49:23.747Z,4.57
2022-10-14T17:51:50.453Z,4.35
2022-10-14T17:54:17.241Z,4.32
2022-10-14T17:56:44.034Z,3.70
2022-10-14T17:59:12.183Z,4.68
2022-10-14T18:04:25.644Z,4.22
2022-10-14T18:06:54.158Z,4.78
2022-10-14T18:09:21.319Z,5.13
2022-10-14T18:14:38.682Z,5.85
2022-10-14T18:17:06.090Z,5.22
2022-10-14T18:19:33.526Z,5.00
2022-10-14T18:22:00.682Z,4.53
2022-10-14T18:24:27.601Z,4.50
2022-10-14T18:26:54.419Z,5.10
2022-10-14T18:29:21.584Z,4.70
2022-10-14T18:31:49.881Z,3.95
2022-10-14T18:34:17.101Z,5.00
2022-10-14T18:36:43.812Z,4.28
2022-10-14T18:39:12.249Z,4.40
2022-10-14T18:41:39.374Z,6.05
2022-10-14T18:44:07.136Z,4.35
2022-10-14T18:46:36.586Z,4.60
2022-10-14T18:49:05.862Z,4.80
2022-10-14T18:51:35.798Z,4.78
2022-10-14T18:54:05.394Z,4.72
2022-10-14T18:56:38.755Z,4.78
2022-10-14T18:59:18.341Z,4.68
2022-10-14T19:01:46.212Z,3.90
2022-10-14T19:04:14.954Z,4.95
2022-10-14T19:06:44.980Z,5.22
2022-10-14T19:09:12.746Z,5.13
2022-10-14T19:11:39.583Z,3.67
2022-10-14T19:14:06.479Z,4.53
2022-10-14T19:16:39.032Z,5.10
2022-10-14T19:19:16.661Z,5.15
2022-10-14T19:21:45.618Z,4.80
2022-10-14T19:24:13.992Z,4.22
2022-10-14T19:26:43.164Z,4.82
2022-10-14T19:29:12.620Z,3.83
2022-10-14T19:31:39.997Z,4.38
2022-10-14T19:34:08.499Z,4.32
2022-10-14T19:36:37.720Z,4.15
2022-10-14T19:39:06.730Z,3.97
2022-10-14T19:41:38.413Z,4.05
2022-10-14T19:44:05.400Z,5.18
2022-10-14T19:46:32.178Z,4.00
2022-10-14T19:49:02.387Z,4.03
2022-10-14T19:51:29.719Z,3.53
2022-10-14T19:53:57.337Z,4.13
2022-10-14T19:56:25.504Z,3.90
2022-10-14T19:58:54.741Z,3.70
2022-10-14T20:01:24.010Z,4.25
2022-10-14T20:03:51.766Z,3.85
2022-10-14T20:06:19.250Z,3.90
2022-10-14T20:08:46.195Z,3.75
2022-10-14T20:11:16.471Z,3.28
2022-10-14T20:13:46.252Z,3.60
2022-10-14T20:16:13.703Z,3.42
2022-10-14T20:18:41.119Z,3.92
2022-10-14T20:21:10.253Z,3.35
2022-10-14T20:23:40.973Z,3.90
2022-10-14T20:26:11.530Z,4.13
2022-10-14T20:28:39.408Z,3.80
2022-10-14T20:31:08.378Z,3.88
2022-10-14T20:33:35.500Z,3.72
2022-10-14T20:36:14.084Z,3.55
2022-10-14T20:38:41.596Z,3.97
2022-10-14T20:41:13.627Z,4.15
2022-10-14T20:43:41.664Z,3.75
2022-10-14T20:46:08.530Z,4.30
2022-10-14T20:48:37.396Z,3.53
2022-10-14T20:51:08.995Z,3.75
2022-10-14T20:53:35.864Z,3.88
2022-10-14T20:56:05.469Z,4.10
2022-10-14T20:58:33.924Z,4.25
2022-10-14T21:01:09.108Z,3.40
2022-10-14T21:03:36.275Z,3.63
2022-10-14T21:06:08.381Z,3.65
2022-10-14T21:08:36.272Z,3.47
2022-10-14T21:11:11.939Z,3.88
2022-10-14T21:13:44.714Z,3.45
2022-10-14T21:16:32.580Z,3.58
2022-10-14T21:19:05.671Z,3.65
2022-10-14T21:21:38.637Z,3.10
2022-10-14T21:24:06.216Z,3.60
2022-10-14T21:26:33.075Z,3.65
2022-10-14T21:29:02.425Z,3.20
2022-10-14T21:31:30.195Z,3.55
2022-10-14T21:34:02.744Z,3.83
2022-10-14T21:36:33.259Z,3.95
2022-10-14T21:39:03.991Z,3.63
2022-10-14T21:41:31.304Z,3.53
2022-10-14T21:43:59.327Z,3.55
2022-10-14T21:46:26.972Z,3.40
2022-10-14T21:48:57.150Z,3.30
2022-10-14T21:51:26.760Z,4.22
2022-10-14T21:53:53.643Z,3.30
2022-10-14T21:56:21.793Z,3.20
2022-10-14T21:58:48.754Z,3.42
2022-10-14T22:01:24.343Z,3.42
2022-10-14T22:04:05.408Z,2.75
2022-10-14T22:06:35.368Z,3.33
2022-10-14T22:09:05.449Z,3.42
2022-10-14T22:11:35.648Z,3.47
2022-10-14T22:14:04.653Z,3.85
2022-10-14T22:16:31.858Z,3.33
2022-10-14T22:19:01.040Z,3.60
2022-10-14T22:21:30.078Z,2.95
2022-10-14T22:23:58.406Z,3.33
2022-10-14T22:26:26.950Z,3.35
2022-10-14T22:29:01.093Z,3.72
2022-10-14T22:31:29.408Z,3.00
2022-10-14T22:33:56.181Z,2.40
2022-10-14T22:36:25.465Z,2.80
2022-10-14T22:38:53.547Z,3.03
2022-10-14T22:41:21.953Z,3.20
2022-10-14T22:43:51.170Z,3.28
2022-10-14T22:46:20.787Z,3.42
2022-10-14T22:48:49.181Z,2.42
2022-10-14T22:51:19.000Z,3.00
2022-10-14T22:53:46.723Z,2.97
2022-10-14T22:56:17.096Z,3.22
2022-10-14T22:58:43.921Z,2.60
2022-10-14T23:01:13.819Z,3.58
2022-10-14T23:03:41.194Z,2.70
2022-10-14T23:06:10.276Z,2.30
2022-10-14T23:08:38.091Z,2.80
2022-10-14T23:11:05.358Z,2.90
2022-10-14T23:13:33.023Z,2.53
2022-10-14T23:16:02.113Z,3.08
2022-10-14T23:18:31.522Z,2.58
2022-10-14T23:20:58.412Z,3.10
2022-10-14T23:23:25.269Z,2.33
2022-10-14T23:25:52.179Z,2.78
2022-10-14T23:28:18.983Z,2.42
2022-10-14T23:30:45.863Z,2.50
2022-10-14T23:33:12.703Z,2.40
2022-10-14T23:35:39.518Z,2.60
2022-10-14T23:38:06.330Z,2.70
2022-10-14T23:40:33.536Z,2.20
2022-10-14T23:43:00.233Z,2.67
2022-10-14T23:45:27.007Z,2.80
2022-10-14T23:47:53.676Z,2.78
2022-10-14T23:50:22.566Z,3.40
2022-10-14T23:52:49.637Z,3.45
2022-10-14T23:55:16.480Z,3.10
2022-10-14T23:57:43.303Z,2.72
